Austin, Texas
Traffic Map
Current Weather Conditions
Austin, Texas
Overcast
Overcast
75°
Feels Like: 75°
Wind Chill: 75° Ceiling: 700
Heat Index: 75° Visibility: 10mi
Dew Point: 72° Wind: 6mph
Humidity: 90% Direction: 110° (ESE)
Pressure: 29.88in Gusts: 0mph
Raw Report DataKATT 261051Z AUTO 11005KT 10SM BKN007 OVC014 24/22 A2988 RMK AO2 SLP104 T02390222
Traffic Incident Summary
Active as of:
Severity:
Category:
InformationThere was an issue retrieving the traffic information for this location. Please try a different location or try again shortly.
Advertisements